Terminal Aerodrome Forecast
Issued by NWS

Home | Current Version | Previous Version | Text Only | Print | Product List | Glossary On
Versions: 1 2 3 4 5 6 7 8 9 10 11 12 13 14
599
FTPA31 PHFO 251733
TAFHOG
TAF
PHOG 251733Z 2518/2618 04011KT P6SM FEW030
     FM252000 05014G21KT P6SM SCT030 SCT060
     FM260600 06006KT P6SM FEW030 SCT050
     FM261500 15006KT P6SM FEW030=

USA.gov is the U.S. government's official web portal to all federal, state and local government web resources and services.